createdAt,value
2017-02-21T00:00:14.751Z,0
2017-02-21T00:00:55.239Z,0
2017-02-21T00:01:35.726Z,0
2017-02-21T00:02:16.230Z,0
2017-02-21T00:02:56.717Z,0
2017-02-21T00:03:37.236Z,0
2017-02-21T00:04:17.740Z,0
2017-02-21T00:04:58.225Z,0
2017-02-21T00:05:38.713Z,0
2017-02-21T00:06:19.203Z,0
2017-02-21T00:06:59.702Z,0
2017-02-21T00:07:40.189Z,0
2017-02-21T00:08:20.680Z,0
2017-02-21T00:09:01.178Z,0
2017-02-21T00:09:41.670Z,0
2017-02-21T00:10:22.159Z,0
2017-02-21T00:11:02.648Z,0
2017-02-21T00:11:43.149Z,0
2017-02-21T00:12:23.635Z,0
2017-02-21T00:13:04.123Z,0
2017-02-21T00:13:44.618Z,0
2017-02-21T00:14:25.116Z,0
2017-02-21T00:15:05.591Z,0
2017-02-21T00:15:46.084Z,0
2017-02-21T00:16:26.569Z,0
2017-02-21T00:17:07.064Z,0
2017-02-21T00:17:47.562Z,0
2017-02-21T00:18:28.051Z,0
2017-02-21T00:19:08.537Z,0
2017-02-21T00:19:49.034Z,0
2017-02-21T00:20:29.524Z,0
2017-02-21T00:21:10.016Z,0
2017-02-21T00:21:50.530Z,0
2017-02-21T00:22:31.021Z,0
2017-02-21T00:23:11.524Z,0
2017-02-21T00:23:52.011Z,0
2017-02-21T00:24:32.495Z,0
2017-02-21T00:25:12.983Z,0
2017-02-21T00:25:53.475Z,0
2017-02-21T00:26:33.968Z,0
2017-02-21T00:27:14.469Z,0
2017-02-21T00:27:54.957Z,0
2017-02-21T00:28:35.458Z,0
2017-02-21T00:29:15.945Z,0
2017-02-21T00:29:56.447Z,0
2017-02-21T00:30:36.947Z,0
2017-02-21T00:31:17.457Z,0
2017-02-21T00:31:57.954Z,0
2017-02-21T00:32:38.446Z,0
2017-02-21T00:33:18.939Z,0
2017-02-21T00:33:59.447Z,0
2017-02-21T00:34:39.950Z,0
2017-02-21T00:35:20.456Z,0
2017-02-21T00:36:00.937Z,0
2017-02-21T00:36:41.446Z,0
2017-02-21T00:37:21.940Z,0
2017-02-21T00:38:02.447Z,0
2017-02-21T00:38:42.930Z,0
2017-02-21T00:39:23.446Z,0
2017-02-21T00:40:03.939Z,0
2017-02-21T00:40:44.437Z,0
2017-02-21T00:41:24.929Z,0
2017-02-21T00:42:05.437Z,0
2017-02-21T00:42:45.925Z,0
2017-02-21T00:43:26.421Z,0
2017-02-21T00:44:06.926Z,0
2017-02-21T00:44:47.411Z,0
2017-02-21T00:45:27.901Z,0
2017-02-21T00:46:08.398Z,0
2017-02-21T00:46:48.897Z,0
2017-02-21T00:47:29.389Z,0
2017-02-21T00:48:09.883Z,0
2017-02-21T00:48:50.374Z,0
2017-02-21T00:49:30.862Z,0
2017-02-21T00:50:11.366Z,0
2017-02-21T00:50:51.878Z,0
2017-02-21T00:51:32.369Z,0
2017-02-21T00:52:12.855Z,0
2017-02-21T00:52:53.340Z,0
2017-02-21T00:53:33.850Z,0
2017-02-21T00:54:14.343Z,0
2017-02-21T00:54:54.841Z,0
2017-02-21T00:55:35.329Z,0
2017-02-21T00:56:16.051Z,0
2017-02-21T00:56:56.537Z,0
2017-02-21T00:57:37.024Z,0
2017-02-21T00:58:17.501Z,0
2017-02-21T00:58:57.985Z,0
2017-02-21T00:59:38.470Z,0
2017-02-21T01:00:18.970Z,0
2017-02-21T01:00:59.462Z,0
2017-02-21T01:01:39.978Z,0
2017-02-21T01:02:20.459Z,0
2017-02-21T01:03:00.946Z,0
2017-02-21T01:03:41.438Z,0
2017-02-21T01:04:21.940Z,0
2017-02-21T01:05:02.430Z,0
2017-02-21T01:05:42.921Z,0
2017-02-21T01:06:23.416Z,0
2017-02-21T01:07:03.917Z,0
2017-02-21T01:07:44.412Z,0
2017-02-21T01:08:24.905Z,0
2017-02-21T01:09:05.394Z,0
2017-02-21T01:09:45.907Z,0
2017-02-21T01:10:26.414Z,0
2017-02-21T01:11:06.910Z,0
2017-02-21T01:11:47.407Z,0
2017-02-21T01:12:27.899Z,0
2017-02-21T01:13:08.413Z,0
2017-02-21T01:13:48.899Z,0
2017-02-21T01:14:29.410Z,0
2017-02-21T01:15:09.897Z,0
2017-02-21T01:15:50.386Z,0
2017-02-21T01:16:30.869Z,0
2017-02-21T01:17:11.357Z,0
2017-02-21T01:17:51.852Z,0
2017-02-21T01:18:32.343Z,0
2017-02-21T01:19:12.828Z,0
2017-02-21T01:19:53.314Z,0
2017-02-21T01:20:33.803Z,0
2017-02-21T01:21:14.299Z,0
2017-02-21T01:21:54.779Z,0
2017-02-21T01:22:35.274Z,0
2017-02-21T01:23:15.761Z,0
2017-02-21T01:23:56.262Z,0
2017-02-21T01:24:36.749Z,0
2017-02-21T01:25:17.245Z,0
2017-02-21T01:25:57.747Z,0
2017-02-21T01:26:38.424Z,0
2017-02-21T01:27:18.914Z,0
2017-02-21T01:27:59.550Z,0
2017-02-21T01:28:40.049Z,0
2017-02-21T01:29:20.541Z,0
2017-02-21T01:30:01.044Z,0
2017-02-21T01:30:41.536Z,0
2017-02-21T01:31:22.049Z,0
2017-02-21T01:32:02.549Z,0
2017-02-21T01:32:43.041Z,0
2017-02-21T01:33:23.544Z,0
2017-02-21T01:34:04.040Z,0
2017-02-21T01:34:44.543Z,0
2017-02-21T01:35:25.048Z,0
2017-02-21T01:36:05.532Z,0
2017-02-21T01:36:46.022Z,0
2017-02-21T01:37:26.522Z,0
2017-02-21T01:38:07.008Z,0
2017-02-21T01:38:47.496Z,0
2017-02-21T01:39:28.001Z,0
2017-02-21T01:40:08.590Z,0
2017-02-21T01:40:49.079Z,0
2017-02-21T01:41:29.589Z,0
2017-02-21T01:42:10.085Z,0
2017-02-21T01:42:50.584Z,0
2017-02-21T01:43:31.076Z,0
2017-02-21T01:44:11.578Z,0
2017-02-21T01:44:52.083Z,0
2017-02-21T01:45:32.581Z,0
2017-02-21T01:46:13.074Z,0
2017-02-21T01:46:53.588Z,0
2017-02-21T01:47:34.076Z,0
2017-02-21T01:48:14.583Z,0
2017-02-21T01:48:55.067Z,0
2017-02-21T01:49:35.581Z,0
2017-02-21T01:50:16.071Z,0
2017-02-21T01:50:56.574Z,0
2017-02-21T01:51:37.095Z,0
2017-02-21T01:52:17.555Z,0
2017-02-21T01:52:58.067Z,0
2017-02-21T01:53:38.572Z,0
2017-02-21T01:54:19.075Z,0
2017-02-21T01:54:59.578Z,0
2017-02-21T01:55:40.075Z,0
2017-02-21T01:56:20.576Z,0
2017-02-21T01:57:01.064Z,0
2017-02-21T01:57:41.573Z,0
2017-02-21T01:58:22.057Z,0
2017-02-21T01:59:02.543Z,0
2017-02-21T01:59:43.026Z,0
2017-02-21T02:00:23.519Z,0
2017-02-21T02:01:04.014Z,0
2017-02-21T02:01:44.503Z,0
2017-02-21T02:02:24.995Z,0
2017-02-21T02:03:05.485Z,0
2017-02-21T02:03:45.979Z,0
2017-02-21T02:04:26.489Z,0
2017-02-21T02:05:06.983Z,0
2017-02-21T02:05:47.480Z,0
2017-02-21T02:06:27.977Z,0
2017-02-21T02:07:08.466Z,0
2017-02-21T02:07:48.950Z,0
2017-02-21T02:08:29.437Z,0
2017-02-21T02:09:09.929Z,0
2017-02-21T02:09:50.423Z,0
2017-02-21T02:10:30.917Z,0
2017-02-21T02:11:11.409Z,0
2017-02-21T02:11:51.902Z,0
2017-02-21T02:12:32.401Z,0
2017-02-21T02:13:12.908Z,0
2017-02-21T02:13:53.391Z,0
2017-02-21T02:14:33.906Z,0
2017-02-21T02:15:14.388Z,0
2017-02-21T02:15:54.878Z,0
2017-02-21T02:16:35.370Z,0
2017-02-21T02:17:15.866Z,0
2017-02-21T02:17:56.352Z,0
2017-02-21T02:18:36.847Z,0
2017-02-21T02:19:17.365Z,0
2017-02-21T02:19:57.869Z,0
2017-02-21T02:20:38.362Z,0
2017-02-21T02:21:18.858Z,0
2017-02-21T02:21:59.345Z,0
2017-02-21T02:22:39.837Z,0
2017-02-21T02:23:20.320Z,0
2017-02-21T02:24:00.807Z,0
2017-02-21T02:24:41.298Z,0
2017-02-21T02:25:21.791Z,0
2017-02-21T02:26:02.279Z,0
2017-02-21T02:26:42.765Z,0
2017-02-21T02:27:23.441Z,0
2017-02-21T02:28:03.930Z,0
2017-02-21T02:28:44.442Z,0
2017-02-21T02:29:24.932Z,0
2017-02-21T02:30:05.424Z,0
2017-02-21T02:30:45.912Z,0
2017-02-21T02:31:26.407Z,0
2017-02-21T02:32:06.896Z,0
2017-02-21T02:32:47.388Z,0
2017-02-21T02:33:27.887Z,0
2017-02-21T02:34:08.388Z,0
2017-02-21T02:34:48.878Z,0
2017-02-21T02:35:29.374Z,0
2017-02-21T02:36:09.864Z,0
2017-02-21T02:36:50.359Z,0
2017-02-21T02:37:30.848Z,0
2017-02-21T02:38:11.346Z,0
2017-02-21T02:38:51.845Z,0
2017-02-21T02:39:32.336Z,0
2017-02-21T02:40:12.832Z,0
2017-02-21T02:40:53.331Z,0
2017-02-21T02:41:33.854Z,0
2017-02-21T02:42:14.337Z,0
2017-02-21T02:42:54.829Z,0
2017-02-21T02:43:35.325Z,0
2017-02-21T02:44:15.811Z,0
2017-02-21T02:44:56.296Z,0
2017-02-21T02:45:36.788Z,0
2017-02-21T02:46:17.289Z,0
2017-02-21T02:46:57.778Z,0
2017-02-21T02:47:38.288Z,0
2017-02-21T02:48:18.791Z,0
2017-02-21T02:48:59.290Z,0
2017-02-21T02:49:39.777Z,0
2017-02-21T02:50:20.271Z,0
2017-02-21T02:51:00.769Z,0
2017-02-21T02:51:41.267Z,0
2017-02-21T02:52:21.771Z,0
2017-02-21T02:53:02.252Z,0
2017-02-21T02:53:42.745Z,0
2017-02-21T02:54:23.234Z,0
2017-02-21T02:55:03.731Z,0
2017-02-21T02:55:44.221Z,0
2017-02-21T02:56:24.731Z,0
2017-02-21T02:57:05.223Z,0
2017-02-21T02:57:45.995Z,0
2017-02-21T02:58:26.428Z,0
2017-02-21T02:59:06.928Z,0
2017-02-21T02:59:47.423Z,0
2017-02-21T03:00:27.914Z,0
2017-02-21T03:01:08.412Z,0
2017-02-21T03:01:48.894Z,0
2017-02-21T03:02:29.392Z,0
2017-02-21T03:03:09.907Z,0
2017-02-21T03:03:50.405Z,0
2017-02-21T03:04:30.900Z,0
2017-02-21T03:05:11.408Z,0
2017-02-21T03:07:24.214Z,0
2017-02-21T03:08:04.709Z,0
2017-02-21T03:08:45.219Z,0
2017-02-21T03:09:25.705Z,0
2017-02-21T03:10:06.218Z,0
2017-02-21T03:10:46.704Z,0
2017-02-21T03:11:27.211Z,0
2017-02-21T03:12:07.712Z,0
2017-02-21T03:12:48.327Z,0
2017-02-21T03:13:28.835Z,0
2017-02-21T03:14:09.325Z,0
2017-02-21T03:14:49.820Z,0
2017-02-21T03:15:30.314Z,0
2017-02-21T03:16:10.815Z,0
2017-02-21T03:16:51.312Z,0
2017-02-21T03:17:31.808Z,0
2017-02-21T03:18:12.288Z,0
2017-02-21T03:18:52.797Z,0
2017-02-21T03:19:33.279Z,0
2017-02-21T03:20:13.776Z,0
2017-02-21T03:20:54.274Z,0
2017-02-21T03:21:34.762Z,0
2017-02-21T03:22:15.247Z,0
2017-02-21T03:22:55.757Z,0
2017-02-21T03:23:36.212Z,0
2017-02-21T03:24:16.697Z,0
2017-02-21T03:24:57.181Z,0
2017-02-21T03:25:37.659Z,0
2017-02-21T03:26:18.167Z,0
2017-02-21T03:26:58.657Z,0
2017-02-21T03:27:39.143Z,0
2017-02-21T03:28:19.625Z,0
2017-02-21T03:29:00.107Z,0
2017-02-21T03:29:40.599Z,0
2017-02-21T03:30:21.098Z,0
2017-02-21T03:31:01.587Z,0
2017-02-21T03:31:42.072Z,0
2017-02-21T03:32:22.552Z,0
2017-02-21T03:33:03.034Z,0
2017-02-21T03:33:43.545Z,0
2017-02-21T03:34:24.039Z,0
2017-02-21T03:35:04.536Z,0
2017-02-21T03:35:45.016Z,0
2017-02-21T03:36:25.504Z,0
2017-02-21T03:37:05.995Z,0
2017-02-21T03:37:46.490Z,0
2017-02-21T03:38:26.986Z,0
2017-02-21T03:39:07.454Z,0
2017-02-21T03:39:47.953Z,0
2017-02-21T03:40:28.443Z,0
2017-02-21T03:41:08.970Z,0
2017-02-21T03:41:49.436Z,0
2017-02-21T03:42:29.935Z,0
2017-02-21T03:43:10.438Z,0
2017-02-21T03:43:50.924Z,0
2017-02-21T03:44:31.433Z,0
2017-02-21T03:45:11.916Z,0
2017-02-21T03:45:52.406Z,0
2017-02-21T03:46:32.887Z,0
2017-02-21T03:47:13.374Z,0
2017-02-21T03:47:53.882Z,0
2017-02-21T03:48:34.370Z,0
2017-02-21T03:49:14.882Z,0
2017-02-21T03:49:55.351Z,0
2017-02-21T03:50:35.826Z,0
2017-02-21T03:51:16.320Z,0
2017-02-21T03:51:56.812Z,0
2017-02-21T03:52:37.295Z,0
2017-02-21T03:53:17.777Z,0
2017-02-21T03:53:58.263Z,0
2017-02-21T03:54:38.772Z,0
2017-02-21T03:55:19.256Z,0
2017-02-21T03:55:59.747Z,0
2017-02-21T03:56:40.254Z,0
2017-02-21T03:57:20.742Z,0
2017-02-21T03:58:01.254Z,0
2017-02-21T03:58:41.764Z,0
2017-02-21T03:59:22.260Z,0
2017-02-21T04:00:02.735Z,0
2017-02-21T04:00:43.220Z,0
2017-02-21T04:01:23.715Z,0
2017-02-21T04:02:04.208Z,0
2017-02-21T04:02:44.706Z,0
2017-02-21T04:03:25.207Z,0
2017-02-21T04:04:05.913Z,0
2017-02-21T04:04:46.410Z,0
2017-02-21T04:05:26.911Z,0
2017-02-21T04:06:07.415Z,0
2017-02-21T04:06:47.902Z,0
2017-02-21T04:07:28.389Z,0
2017-02-21T04:08:08.901Z,0
2017-02-21T04:08:49.409Z,0
2017-02-21T04:09:29.897Z,0
2017-02-21T04:10:10.403Z,0
2017-02-21T04:10:50.912Z,0
2017-02-21T04:11:31.403Z,0
2017-02-21T04:12:11.877Z,0
2017-02-21T04:12:52.409Z,0
2017-02-21T04:13:32.893Z,0
2017-02-21T04:14:13.380Z,0
2017-02-21T04:14:53.859Z,0
2017-02-21T04:15:34.354Z,0
2017-02-21T04:16:14.863Z,0
2017-02-21T04:16:55.340Z,0
2017-02-21T04:17:35.828Z,0
2017-02-21T04:18:16.331Z,0
2017-02-21T04:18:56.823Z,0
2017-02-21T04:19:37.313Z,0
2017-02-21T04:20:17.810Z,0
2017-02-21T04:20:58.297Z,0
2017-02-21T04:21:38.783Z,0
2017-02-21T04:22:19.294Z,0
2017-02-21T04:22:59.787Z,0
2017-02-21T04:23:40.273Z,0
2017-02-21T04:24:20.782Z,0
2017-02-21T04:25:01.294Z,0
2017-02-21T04:25:41.782Z,0
2017-02-21T04:26:22.284Z,0
2017-02-21T04:27:02.780Z,0
2017-02-21T04:27:43.265Z,0
2017-02-21T04:28:23.751Z,0
2017-02-21T04:29:04.232Z,0
2017-02-21T04:29:44.738Z,0
2017-02-21T04:30:25.235Z,0
2017-02-21T04:31:05.735Z,0
2017-02-21T04:31:46.208Z,0
2017-02-21T04:32:26.715Z,0
2017-02-21T04:33:07.232Z,0
2017-02-21T04:33:47.731Z,0
2017-02-21T04:34:28.436Z,0
2017-02-21T04:35:08.918Z,0
2017-02-21T04:35:49.428Z,0
2017-02-21T04:36:29.936Z,0
2017-02-21T04:37:10.433Z,0
2017-02-21T04:37:50.927Z,0
2017-02-21T04:38:31.432Z,0
2017-02-21T04:39:11.929Z,0
2017-02-21T04:39:52.492Z,0
2017-02-21T04:40:32.996Z,0
2017-02-21T04:41:13.510Z,0
2017-02-21T04:41:53.994Z,0
2017-02-21T04:42:34.490Z,0
2017-02-21T04:43:14.974Z,0
2017-02-21T04:43:55.479Z,0
2017-02-21T04:44:35.973Z,0
2017-02-21T04:45:16.478Z,0
2017-02-21T04:45:56.967Z,0
2017-02-21T04:46:37.483Z,0
2017-02-21T04:47:17.960Z,0
2017-02-21T04:47:58.482Z,0
2017-02-21T04:48:38.950Z,0
2017-02-21T04:49:19.479Z,0
2017-02-21T04:49:59.975Z,0
2017-02-21T04:50:40.472Z,0
2017-02-21T04:51:20.960Z,0
2017-02-21T04:52:01.453Z,0
2017-02-21T04:52:41.960Z,0
2017-02-21T04:53:22.444Z,0
2017-02-21T04:54:02.928Z,0
2017-02-21T04:54:43.450Z,0
2017-02-21T04:55:23.968Z,0
2017-02-21T04:56:04.471Z,0
2017-02-21T04:56:44.962Z,0
2017-02-21T04:57:25.441Z,0
2017-02-21T04:58:05.922Z,0
2017-02-21T04:58:46.417Z,0
2017-02-21T04:59:26.913Z,0
2017-02-21T05:00:07.386Z,0
2017-02-21T05:00:47.909Z,0
2017-02-21T05:01:28.406Z,0
2017-02-21T05:02:08.909Z,0
2017-02-21T05:02:49.360Z,0
2017-02-21T05:03:29.846Z,0
2017-02-21T05:04:10.327Z,0
2017-02-21T05:04:50.811Z,0
2017-02-21T05:05:31.305Z,0
2017-02-21T05:06:11.805Z,0
2017-02-21T05:06:52.304Z,0
2017-02-21T05:07:32.811Z,0
2017-02-21T05:08:13.291Z,0
2017-02-21T05:08:53.784Z,0
2017-02-21T05:09:34.291Z,0
2017-02-21T05:10:14.762Z,0
2017-02-21T05:10:55.255Z,0
2017-02-21T05:11:35.752Z,0
2017-02-21T05:12:16.248Z,0
2017-02-21T05:12:56.732Z,0
2017-02-21T05:13:37.224Z,0
2017-02-21T05:14:17.708Z,0
2017-02-21T05:14:58.214Z,0
2017-02-21T05:15:38.705Z,0
2017-02-21T05:16:19.186Z,0
2017-02-21T05:16:59.691Z,0
2017-02-21T05:17:40.180Z,0
2017-02-21T05:18:20.667Z,0
2017-02-21T05:19:01.148Z,0
2017-02-21T05:19:41.659Z,0
2017-02-21T05:20:22.147Z,0
2017-02-21T05:21:02.637Z,0
2017-02-21T05:21:43.119Z,0
2017-02-21T05:22:23.636Z,0
2017-02-21T05:23:04.138Z,0
2017-02-21T05:23:44.619Z,0
2017-02-21T05:24:25.113Z,0
2017-02-21T05:25:05.602Z,0
2017-02-21T05:25:46.099Z,0
2017-02-21T05:26:26.588Z,0
2017-02-21T05:27:07.084Z,0
2017-02-21T05:27:47.584Z,0
2017-02-21T05:28:28.072Z,0
2017-02-21T05:29:08.576Z,0
2017-02-21T05:29:49.068Z,0
2017-02-21T05:30:29.578Z,0
2017-02-21T05:31:10.075Z,0
2017-02-21T05:31:50.573Z,0
2017-02-21T05:32:31.064Z,0
2017-02-21T05:33:11.552Z,0
2017-02-21T05:33:52.037Z,0
2017-02-21T05:34:32.547Z,0
2017-02-21T05:35:13.029Z,0
2017-02-21T05:35:53.525Z,0
2017-02-21T05:36:34.022Z,0
2017-02-21T05:37:14.523Z,0
2017-02-21T05:37:55.017Z,0
2017-02-21T05:38:35.496Z,0
2017-02-21T05:39:15.982Z,0
2017-02-21T05:39:56.472Z,0
2017-02-21T05:40:36.962Z,0
2017-02-21T05:41:17.466Z,0
2017-02-21T05:41:57.956Z,0
2017-02-21T05:42:38.444Z,0
2017-02-21T05:43:18.934Z,0
2017-02-21T05:43:59.425Z,0
2017-02-21T05:44:39.913Z,0
2017-02-21T05:45:20.405Z,0
2017-02-21T05:46:00.915Z,0
2017-02-21T05:46:41.397Z,0
2017-02-21T05:47:21.880Z,0
2017-02-21T05:48:02.372Z,0
2017-02-21T05:48:42.874Z,0
2017-02-21T05:49:23.356Z,0
2017-02-21T05:50:03.838Z,0
2017-02-21T05:50:44.328Z,0
2017-02-21T05:51:24.810Z,0
2017-02-21T05:52:05.300Z,0
2017-02-21T05:52:45.804Z,0
2017-02-21T05:53:26.298Z,0
2017-02-21T05:54:06.797Z,0
2017-02-21T05:54:47.273Z,0
2017-02-21T05:55:27.772Z,0
2017-02-21T05:56:08.272Z,0
2017-02-21T05:56:48.758Z,0
2017-02-21T05:57:29.248Z,0
2017-02-21T05:58:09.742Z,0
2017-02-21T05:58:50.248Z,0
2017-02-21T05:59:30.747Z,0
2017-02-21T06:00:11.242Z,0
2017-02-21T06:00:51.969Z,0
2017-02-21T06:01:32.461Z,0
2017-02-21T06:02:12.949Z,0
2017-02-21T06:02:53.447Z,0
2017-02-21T06:03:33.930Z,0
2017-02-21T06:04:14.445Z,0
2017-02-21T06:04:54.943Z,0
2017-02-21T06:05:35.443Z,0
2017-02-21T06:06:15.942Z,0
2017-02-21T06:06:56.443Z,0
2017-02-21T06:07:36.933Z,0
2017-02-21T06:08:17.449Z,0
2017-02-21T06:08:57.941Z,4
2017-02-21T06:09:38.435Z,4
2017-02-21T06:10:18.925Z,4
2017-02-21T06:10:59.409Z,4
2017-02-21T06:11:39.916Z,4
2017-02-21T06:12:20.409Z,4
2017-02-21T06:13:00.910Z,4
2017-02-21T06:13:41.403Z,4
2017-02-21T06:14:21.889Z,4
2017-02-21T06:15:02.350Z,4
2017-02-21T06:15:42.851Z,4
2017-02-21T06:16:23.343Z,4
2017-02-21T06:17:03.848Z,4
2017-02-21T06:17:44.341Z,4
2017-02-21T06:18:24.848Z,4
2017-02-21T06:19:05.476Z,4
2017-02-21T06:19:45.979Z,4
2017-02-21T06:20:26.475Z,8
2017-02-21T06:21:06.982Z,8
2017-02-21T06:21:47.465Z,8
2017-02-21T06:22:27.974Z,8
2017-02-21T06:23:08.473Z,8
2017-02-21T06:23:48.975Z,8
2017-02-21T06:24:29.466Z,12
2017-02-21T06:25:09.978Z,16
2017-02-21T06:25:50.462Z,16
2017-02-21T06:26:30.956Z,28
2017-02-21T06:27:11.459Z,36
2017-02-21T06:27:51.948Z,40
2017-02-21T06:28:32.447Z,40
2017-02-21T06:29:12.938Z,36
2017-02-21T06:29:53.423Z,36
2017-02-21T06:30:33.942Z,36
2017-02-21T06:31:14.588Z,36
2017-02-21T06:31:55.078Z,40
2017-02-21T06:32:35.571Z,44
2017-02-21T06:33:16.071Z,52
2017-02-21T06:33:56.557Z,56
2017-02-21T06:34:37.080Z,60
2017-02-21T06:35:17.560Z,56
2017-02-21T06:35:58.063Z,56
2017-02-21T06:36:38.560Z,52
2017-02-21T06:37:19.067Z,60
2017-02-21T06:37:59.554Z,64
2017-02-21T06:38:40.042Z,76
2017-02-21T06:39:20.525Z,84
2017-02-21T06:40:01.030Z,88
2017-02-21T06:40:41.518Z,84
2017-02-21T06:41:22.009Z,84
2017-02-21T06:42:02.540Z,80
2017-02-21T06:42:42.997Z,84
2017-02-21T06:43:23.484Z,92
2017-02-21T06:44:03.976Z,100
2017-02-21T06:44:44.474Z,104
2017-02-21T06:45:24.961Z,112
2017-02-21T06:46:05.465Z,116
2017-02-21T06:46:45.958Z,124
2017-02-21T06:47:26.443Z,132
2017-02-21T06:48:06.936Z,136
2017-02-21T06:48:47.433Z,136
2017-02-21T06:49:27.923Z,136
2017-02-21T06:50:08.407Z,144
2017-02-21T06:50:48.901Z,152
2017-02-21T06:51:29.399Z,152
2017-02-21T06:52:09.888Z,152
2017-02-21T06:52:50.392Z,136
2017-02-21T06:53:30.882Z,120
2017-02-21T06:54:11.360Z,116
2017-02-21T06:54:51.855Z,116
2017-02-21T06:55:32.358Z,116
2017-02-21T06:56:12.851Z,108
2017-02-21T06:56:53.345Z,116
2017-02-21T06:57:33.847Z,124
2017-02-21T06:58:14.343Z,140
2017-02-21T06:58:54.847Z,144
2017-02-21T06:59:35.331Z,144
2017-02-21T07:00:15.817Z,144
2017-02-21T07:00:56.310Z,148
2017-02-21T07:01:36.791Z,136
2017-02-21T07:02:17.288Z,124
2017-02-21T07:02:57.773Z,132
2017-02-21T07:03:38.261Z,152
2017-02-21T07:04:18.746Z,148
2017-02-21T07:04:59.231Z,136
2017-02-21T07:05:39.735Z,136
2017-02-21T07:06:20.220Z,132
2017-02-21T07:07:00.708Z,128
2017-02-21T07:07:41.191Z,124
2017-02-21T07:08:21.699Z,132
2017-02-21T07:09:02.186Z,128
2017-02-21T07:09:42.691Z,116
2017-02-21T07:10:23.181Z,116
2017-02-21T07:11:03.673Z,124
2017-02-21T07:11:44.182Z,144
2017-02-21T07:12:24.691Z,176
2017-02-21T07:13:05.181Z,192
2017-02-21T07:13:45.675Z,204
2017-02-21T07:14:26.169Z,212
2017-02-21T07:15:06.668Z,228
2017-02-21T07:15:47.176Z,244
2017-02-21T07:16:27.667Z,252
2017-02-21T07:17:08.174Z,244
2017-02-21T07:17:49.647Z,264
2017-02-21T07:18:30.138Z,292
2017-02-21T07:19:10.639Z,296
2017-02-21T07:19:51.119Z,308
2017-02-21T07:20:31.624Z,300
2017-02-21T07:21:12.115Z,260
2017-02-21T07:21:52.601Z,220
2017-02-21T07:22:33.100Z,204
2017-02-21T07:23:13.588Z,208
2017-02-21T07:23:54.092Z,236
2017-02-21T07:24:34.579Z,264
2017-02-21T07:25:15.064Z,280
2017-02-21T07:25:55.544Z,292
2017-02-21T07:26:36.022Z,312
2017-02-21T07:27:16.508Z,332
2017-02-21T07:27:57.016Z,352
2017-02-21T07:28:37.533Z,372
2017-02-21T07:29:18.021Z,384
2017-02-21T07:29:58.513Z,412
2017-02-21T07:30:39.006Z,456
2017-02-21T07:31:19.492Z,508
2017-02-21T07:31:59.982Z,572
2017-02-21T07:32:40.476Z,620
2017-02-21T07:33:20.980Z,672
2017-02-21T07:34:01.474Z,696
2017-02-21T07:34:41.973Z,712
2017-02-21T07:35:22.462Z,724
2017-02-21T07:36:02.950Z,736
2017-02-21T07:36:43.445Z,764
2017-02-21T07:37:23.939Z,780
2017-02-21T07:38:04.442Z,780
2017-02-21T07:38:44.922Z,784
2017-02-21T07:39:25.419Z,812
2017-02-21T07:40:06.422Z,880
2017-02-21T07:40:46.932Z,1004
2017-02-21T07:41:27.420Z,1108
2017-02-21T07:42:07.921Z,1140
2017-02-21T07:42:48.417Z,1176
2017-02-21T07:43:28.928Z,1200
2017-02-21T07:44:09.427Z,1172
2017-02-21T07:44:49.922Z,1128
2017-02-21T07:45:30.414Z,1092
2017-02-21T07:46:10.901Z,1092
2017-02-21T07:46:51.399Z,1120
2017-02-21T07:47:31.887Z,1164
2017-02-21T07:48:12.377Z,1216
2017-02-21T07:48:52.870Z,1240
2017-02-21T07:49:33.371Z,1260
2017-02-21T07:50:13.917Z,1296
2017-02-21T07:50:54.410Z,1400
2017-02-21T07:51:34.896Z,1680
2017-02-21T07:52:15.385Z,2732
2017-02-21T07:52:55.867Z,3108
2017-02-21T07:53:36.361Z,3256
2017-02-21T07:54:16.858Z,4180
2017-02-21T07:54:57.347Z,4780
2017-02-21T07:55:37.853Z,4012
2017-02-21T07:56:18.340Z,3652
2017-02-21T07:56:58.841Z,3052
2017-02-21T07:57:39.328Z,2692
2017-02-21T07:58:19.814Z,3632
2017-02-21T07:59:00.300Z,3680
2017-02-21T07:59:40.805Z,3780
2017-02-21T08:00:21.301Z,4064
2017-02-21T08:01:01.781Z,4392
2017-02-21T08:01:42.265Z,4836
2017-02-21T08:02:22.741Z,5336
2017-02-21T08:03:03.234Z,5760
2017-02-21T08:03:43.751Z,6124
2017-02-21T08:04:24.254Z,6004
2017-02-21T08:05:04.754Z,6092
2017-02-21T08:05:45.256Z,6356
2017-02-21T08:06:25.722Z,6456
2017-02-21T08:07:06.213Z,6276
2017-02-21T08:07:46.907Z,5868
2017-02-21T08:08:27.404Z,6248
2017-02-21T08:09:07.904Z,4404
2017-02-21T08:09:48.388Z,3672
2017-02-21T08:10:28.877Z,3424
2017-02-21T08:11:09.367Z,3164
2017-02-21T08:11:49.871Z,2924
2017-02-21T08:12:30.377Z,2820
2017-02-21T08:13:10.868Z,2712
2017-02-21T08:13:51.358Z,2388
2017-02-21T08:14:31.861Z,2408
2017-02-21T08:15:12.347Z,3360
2017-02-21T08:15:52.844Z,3600
2017-02-21T08:16:33.345Z,3612
2017-02-21T08:17:13.830Z,5920
2017-02-21T08:17:54.347Z,12184
2017-02-21T08:18:34.834Z,12824
2017-02-21T08:19:15.343Z,13256
2017-02-21T08:19:55.832Z,6792
2017-02-21T08:20:36.514Z,12284
2017-02-21T08:21:17.013Z,8812
2017-02-21T08:21:57.507Z,6416
2017-02-21T08:22:37.997Z,5936
2017-02-21T08:23:19.153Z,8960
2017-02-21T08:23:59.660Z,4788
2017-02-21T08:24:40.154Z,3852
2017-02-21T08:25:20.640Z,3972
2017-02-21T08:26:01.130Z,4192
2017-02-21T08:26:41.609Z,4412
2017-02-21T08:27:22.115Z,4008
2017-02-21T08:28:02.608Z,3452
2017-02-21T08:28:43.100Z,3168
2017-02-21T08:29:23.597Z,2824
2017-02-21T08:30:04.090Z,2624
2017-02-21T08:30:44.599Z,2640
2017-02-21T08:31:25.096Z,2788
2017-02-21T08:32:05.602Z,3264
2017-02-21T08:32:46.084Z,4212
2017-02-21T08:33:26.594Z,5192
2017-02-21T08:34:07.088Z,10028
2017-02-21T08:34:47.593Z,12988
2017-02-21T08:35:28.084Z,21152
2017-02-21T08:36:09.263Z,12704
2017-02-21T08:36:49.762Z,11684
2017-02-21T08:37:30.259Z,10276
2017-02-21T08:38:10.752Z,9436
2017-02-21T08:38:52.194Z,11948
2017-02-21T08:39:31.735Z,9688
2017-02-21T08:40:12.248Z,12328
2017-02-21T08:40:52.729Z,13520
2017-02-21T08:41:33.211Z,20416
2017-02-21T08:42:13.702Z,8848
2017-02-21T08:42:54.198Z,5920
2017-02-21T08:43:35.365Z,7272
2017-02-21T08:44:15.851Z,13300
2017-02-21T08:44:56.343Z,20224
2017-02-21T08:45:36.839Z,19904
2017-02-21T08:46:17.318Z,20384
2017-02-21T08:46:57.812Z,20256
2017-02-21T08:47:38.311Z,20256
2017-02-21T08:48:18.809Z,20704
2017-02-21T08:48:59.296Z,14864
2017-02-21T08:49:39.802Z,18700
2017-02-21T08:50:20.296Z,20352
2017-02-21T08:51:00.784Z,21088
2017-02-21T08:51:41.264Z,13600
2017-02-21T08:52:21.782Z,8116
2017-02-21T08:53:02.265Z,8528
2017-02-21T08:53:42.912Z,23392
2017-02-21T08:54:23.396Z,9252
2017-02-21T08:55:03.886Z,5956
2017-02-21T08:55:44.390Z,23072
2017-02-21T08:56:24.885Z,21920
2017-02-21T08:57:05.382Z,17260
2017-02-21T08:57:46.456Z,22240
2017-02-21T08:58:26.971Z,21120
2017-02-21T08:59:07.463Z,8248
2017-02-21T08:59:47.964Z,9984
2017-02-21T09:00:28.460Z,10508
2017-02-21T09:01:09.626Z,23200
2017-02-21T09:01:50.130Z,25248
2017-02-21T09:02:31.566Z,9184
2017-02-21T09:03:12.706Z,22432
2017-02-21T09:03:53.231Z,23872
2017-02-21T09:04:33.723Z,23488
2017-02-21T09:05:14.215Z,21248
2017-02-21T09:05:54.715Z,12124
2017-02-21T09:06:35.219Z,23648
2017-02-21T09:07:15.724Z,19688
2017-02-21T09:07:56.208Z,22336
2017-02-21T09:08:36.931Z,22240
2017-02-21T09:09:17.600Z,21888
2017-02-21T09:09:58.095Z,22432
2017-02-21T09:10:38.580Z,22080
2017-02-21T09:11:19.066Z,22880
2017-02-21T09:11:59.554Z,23392
2017-02-21T09:12:40.099Z,20640
2017-02-21T09:13:20.561Z,23584
2017-02-21T09:14:01.068Z,7660
2017-02-21T09:14:41.559Z,4800
2017-02-21T09:15:22.059Z,22496
2017-02-21T09:16:02.547Z,23808
2017-02-21T09:16:43.061Z,24384
2017-02-21T09:17:23.561Z,24224
2017-02-21T09:18:04.062Z,23936
2017-02-21T09:18:44.591Z,24032
2017-02-21T09:19:25.086Z,19816
2017-02-21T09:20:05.574Z,15044
2017-02-21T09:20:46.077Z,18792
2017-02-21T09:21:26.571Z,6184
2017-02-21T09:22:07.097Z,25760
2017-02-21T09:22:47.589Z,8360
2017-02-21T09:23:28.102Z,4624
2017-02-21T09:24:08.606Z,4180
2017-02-21T09:24:49.101Z,24832
2017-02-21T09:25:29.611Z,8348
2017-02-21T09:26:10.125Z,24480
2017-02-21T09:26:50.603Z,26496
2017-02-21T09:27:31.100Z,23072
2017-02-21T09:28:11.599Z,7708
2017-02-21T09:28:52.089Z,3268
2017-02-21T09:29:32.578Z,4472
2017-02-21T09:30:13.083Z,4284
2017-02-21T09:30:53.592Z,3084
2017-02-21T09:31:34.087Z,20052
2017-02-21T09:32:14.596Z,4020
2017-02-21T09:32:55.077Z,3016
2017-02-21T09:33:35.618Z,2208
2017-02-21T09:34:16.111Z,2312
2017-02-21T09:34:56.599Z,2532
2017-02-21T09:35:37.086Z,2232
2017-02-21T09:36:17.590Z,3580
2017-02-21T09:36:58.076Z,4632
2017-02-21T09:37:38.575Z,5068
2017-02-21T09:38:19.084Z,5328
2017-02-21T09:38:59.570Z,4384
2017-02-21T09:39:40.080Z,3432
2017-02-21T09:40:20.595Z,2516